Crooked Creek Research Lab Weather observations

Data are for 10 minute period ending at time listed.
 Day   Time    Ave.   Ave.  Ave.  Vector   Max.   Stn.    Total    Solar   Ave.   Snow 
  of    of     Air    Rel.  Wind   Wind    Wind   Baro.  Precip.   Rad.    Soil   Depth
Year   Day     Temp.  Hum.  Speed  Dir.    Gust   Pres.                    Temp.       
2016   (PST)    F      %     mph   deg.    mph     mb.     in.     W/m2     F      in. 
---------------------------------------------------------------------------------------  
 151    0:00   37.4    73    1.0   126      2.9   696.2    0.00       0    999.0    -0.6
 151    0:10   35.9    77    0.8   127      3.0   696.3    0.00       0    999.0    -0.5
 151    0:20   35.2    79    0.9   177      2.8   696.4    0.00       0    999.0    -0.6
 151    0:30   34.2    81    1.5   193      3.3   696.0    0.00       0    999.0    -0.5
 151    0:40   35.5    77    1.4   128      3.7   696.4    0.00       0    999.0    -0.4
 151    0:50   37.1    72    0.6   250      2.3   696.3    0.00       0    999.0    -0.6
 151    1:00   37.0    73    0.3   237      1.5   696.2    0.00       0    999.0    -0.7
 151    1:10   36.2    75    0.1   136      2.0   696.3    0.00       0    999.0    -0.6
 151    1:20   36.0    76    0.5   117      2.4   696.1    0.00       0    999.0    -0.6
 151    1:30   36.3    74    0.5   149      3.1   696.5    0.00       0    999.0    -0.6
 151    1:40   37.7    70    1.7   238      3.4   696.4    0.00       0    999.0    -0.7
 151    1:50   38.0    69    2.2   199      3.9   696.1    0.00       0    999.0    -0.8
 151    2:00   38.6    67    2.7    87      9.6   696.2    0.00       0    999.0    -0.7
 151    2:10   37.6    69    1.7   179      3.5   696.5    0.00       0    999.0    -0.8
 151    2:20   36.3    71    1.6    20      5.6   696.2    0.00       0    999.0    -0.7
 151    2:30   38.9    62    3.8    56      8.0   696.2    0.00       0    999.0    -0.5
 151    2:40   40.6    58    3.4    41      7.5   696.2    0.00       0    999.0    -0.6
 151    2:50   41.2    55    3.8    42      9.5   696.4    0.00       0    999.0    -0.6
 151    3:00   40.7    56    3.3    36      9.3   696.2    0.00       0    999.0    -0.6
 151    3:10   40.4    57    1.3   347      6.1   696.2    0.00       0    999.0    -0.7
 151    3:20   38.7    61    0.9   253      3.5   696.4    0.00       0    999.0    -0.8
 151    3:30   36.1    68    1.8   234      5.3   696.5    0.00       0    999.0    -0.8
 151    3:40   34.8    71    1.3   184      3.9   696.3    0.00       0    999.0    -0.6
 151    3:50   34.9    71    2.3   229      5.0   696.3    0.00       0    999.0    -0.7
 151    4:00   34.2    73    2.9   216      6.4   696.4    0.00       0    999.0    -0.6
 151    4:10   33.6    75    2.0   222      5.0   696.3    0.00       0    999.0    -0.7
 151    4:20   33.4    75    2.4   140      5.1   696.2    0.00       1    999.0    -0.6
 151    4:30   33.9    73    2.5    19      7.5   696.2    0.00       2    999.0    -0.6
 151    4:40   37.9    62    4.7    36     12.9   696.3    0.00       5    999.0    -0.5
 151    4:50   41.7    52    6.3    38     12.3   696.5    0.00       8    999.0    -0.6
 151    5:00   42.2    51    6.1    36     12.1   696.2    0.00      11    999.0    -0.6
 151    5:10   42.2    51    5.7    37     11.5   696.4    0.00      14    999.0    -0.6
 151    5:20   42.1    51    5.4    39     10.2   696.4    0.00      16    999.0    -0.6
 151    5:30   42.4    51    5.4    39     11.0   696.5    0.00      18    999.0    -0.6
 151    5:40   42.6    50    5.8    40     12.1   696.5    0.00      19    999.0    -0.6
 151    5:50  999.0   999  999.0   999    999.0   999.0   999.00     999    999.0   999.0
 151    6:00  999.0   999  999.0   999    999.0   999.0   999.00     999    999.0   999.0
 151    6:10  999.0   999  999.0   999    999.0   999.0   999.00     999    999.0   999.0
 151    6:20  999.0   999  999.0   999    999.0   999.0   999.00     999    999.0   999.0
 151    6:30  999.0   999  999.0   999    999.0   999.0   999.00     999    999.0   999.0
 151    6:40  999.0   999  999.0   999    999.0   999.0   999.00     999    999.0   999.0
 151    6:50  999.0   999  999.0   999    999.0   999.0   999.00     999    999.0   999.0
 151    7:00  999.0   999  999.0   999    999.0   999.0   999.00     999    999.0   999.0
 151    7:10  999.0   999  999.0   999    999.0   999.0   999.00     999    999.0   999.0
 151    7:20  999.0   999  999.0   999    999.0   999.0   999.00     999    999.0   999.0
 151    7:30  999.0   999  999.0   999    999.0   999.0   999.00     999    999.0   999.0
 151    7:40  999.0   999  999.0   999    999.0   999.0   999.00     999    999.0   999.0
 151    7:50  999.0   999  999.0   999    999.0   999.0   999.00     999    999.0   999.0
 151    8:00   49.5    40    5.6    44     11.8   697.4    0.00     620    999.0    -0.5
 151    8:10   49.4    39    6.1    46     13.7   697.5    0.00     643    999.0    -0.8
 151    8:20   49.9    40    4.6    51     10.7   697.6    0.00     671    999.0    -0.7
 151    8:30   50.4    39    4.6    48     10.4   697.6    0.00     692    999.0    -0.8
 151    8:40   50.2    40    5.1    50     11.8   697.3    0.00     717    999.0    -0.8
 151    8:50   50.5    40    4.2    51      9.6   697.7    0.00     748    999.0    -0.7
 151    9:00   51.5    39    3.6    51      9.9   697.5    0.00     773    999.0    -0.7
 151    9:10   52.2    38    3.9    38      9.9   697.5    0.00     794    999.0    -0.8
 151    9:20   51.8    39    2.9    62      6.2   697.2    0.00     822    999.0    -0.7
 151    9:30   52.4    38    4.7    73      9.8   697.3    0.00     839    999.0    -0.7
 151    9:40   52.1    38    4.1    67     11.4   697.6    0.00     858    999.0    -0.6
 151    9:50   52.4    38    4.3    47     10.5   697.4    0.00     867    999.0    -0.6
 151   10:00   52.8    38    5.1    35     11.0   697.2    0.00     893    999.0    -0.6
 151   10:10   53.2    37    3.8    34      7.4   697.2    0.00     920    999.0    -0.8
 151   10:20   53.4    37    4.4   360     11.2   697.5    0.00     931    999.0    -0.7
 151   10:30   54.0    36    3.8    82      8.7   697.5    0.00     961    999.0    -0.7
 151   10:40   54.6    36    4.3    17     11.1   697.5    0.00     987    999.0    -0.5
 151   10:50   54.8    35    4.6   356     11.0   697.8    0.00    1020    999.0    -0.5
 151   11:00   55.1    35    4.4   356     12.9   697.8    0.00    1032    999.0    -0.6
 151   11:10   55.5    32    5.3    31     12.1   697.9    0.00     843    999.0    -0.6
 151   11:20   53.9    33    3.6   332     10.7   697.8    0.00     635    999.0    -0.5
 151   11:30   53.2    33    3.1    40      7.2   698.2    0.00     375    999.0    -0.4
 151   11:40   53.8    34    3.7   326      7.5   698.3    0.00     635    999.0    -0.5
 151   11:50   54.5    35    4.5   277      8.6   698.2    0.00     682    999.0    -0.5
 151   12:00   53.5    35    3.5   238      7.1   698.1    0.00     412    999.0    -0.6
 151   12:10   55.3    33    5.1     2     12.6   697.8    0.00    1026    999.0    -0.6
 151   12:20   56.3    32    4.6   327     14.8   698.0    0.00     784    999.0    -0.5
 151   12:30   55.9    32    4.9    47      9.7   698.0    0.00     798    999.0    -0.6
 151   12:40   55.1    34    4.1   355      8.3   698.1    0.00     311    999.0    -0.6
 151   12:50   55.3    34    5.4   342     12.8   698.2    0.00     961    999.0    -0.4
 151   13:00   57.2    32    5.2    33     10.5   698.1    0.00     973    999.0    -0.5
 151   13:10   57.3    32    5.0    26     13.5   698.1    0.00    1025    999.0    -0.7
 151   13:20   57.5    32    6.4    49     13.9   698.1    0.00     933    999.0    -0.7
 151   13:30   55.0    34    4.6    56     13.0   698.0    0.00     258    999.0    -0.7
 151   13:40   56.0    33    5.3   347     12.9   697.8    0.00     782    999.0    -0.6
 151   13:50   55.2    34    2.9   353      6.6   698.0    0.00     347    999.0    -0.7
 151   14:00   55.8    34    3.5    39      9.5   697.9    0.00     382    999.0    -0.6
 151   14:10   54.5    34    3.8    34      9.0   698.1    0.00     246    999.0    -0.7
 151   14:20   54.1    35    4.0    54      7.8   698.2    0.00     311    999.0    -0.6
 151   14:30   55.5    33    4.4    91     10.7   698.0    0.00     661    999.0    -0.5
 151   14:40   57.3    32    6.1    59     13.9   697.7    0.00     824    999.0    -0.7
 151   14:50   57.5    31    4.6    38     14.0   697.8    0.00     617    999.0    -0.7
 151   15:00   57.7    31    5.1    52     13.4   697.5    0.00     695    999.0    -0.7
 151   15:10   58.0    30    5.2    34     11.8   697.8    0.00     704    999.0    -0.7
 151   15:20   57.3    30    5.4    47     13.7   697.8    0.00     589    999.0    -0.7
 151   15:30   56.4    31    5.7    42     13.5   698.0    0.00     380    999.0    -0.7
 151   15:40   57.1    30    4.2    31     10.3   697.8    0.00     585    999.0    -0.7
 151   15:50   57.9    30    4.3    35     10.8   697.9    0.00     572    999.0    -0.8
 151   16:00   57.2    30    7.2    38     16.4   697.8    0.00     469    999.0    -0.7
 151   16:10   57.1    30    4.3    37     10.2   697.7    0.00     441    999.0    -0.6
 151   16:20   56.1    30    5.1    35     11.1   697.8    0.00     185    999.0    -0.7
 151   16:30   55.0    30    5.8    40     15.5   697.7    0.00     170    999.0    -0.6
 151   16:40   53.5    32    4.3    50      9.9   697.8    0.00      40    999.0    -0.5
 151   16:50   53.7    31    4.6    43     15.6   697.7    0.00     137    999.0    -0.5
 151   17:00   55.2    29    5.1    51     12.8   697.6    0.00     323    999.0    -0.5
 151   17:10   55.9    29    6.3    37     14.5   697.5    0.00     243    999.0    -0.6
 151   17:20   54.5    30    6.6    43     12.6   697.3    0.00     172    999.0    -0.6
 151   17:30   53.5    31    4.0    21     11.0   697.5    0.00      31    999.0    -0.5
 151   17:40   52.8    31    5.9    39     16.6   697.5    0.00      40    999.0    -0.5
 151   17:50   52.6    31    5.0    38     12.5   697.6    0.00      28    999.0    -0.5
 151   18:00   52.3    32    5.7    41     12.0   698.0    0.00      24    999.0    -0.5
 151   18:10   52.1    33    7.3    43     14.1   697.8    0.00      21    999.0    -0.5
 151   18:20   51.8    33    7.2    47     17.5   697.5    0.00      20    999.0    -0.5
 151   18:30   51.5    33    6.3    40     12.3   697.8    0.00      17    999.0    -0.5
 151   18:40   51.1    33    6.4    43     13.4   697.3    0.00      14    999.0    -0.5
 151   18:50   50.8    33    6.5    47     14.1   697.7    0.00      10    999.0    -0.5
 151   19:00   50.3    34    6.0    43     10.9   697.5    0.00       6    999.0    -0.6
 151   19:10   49.9    34    6.2    41     12.0   697.6    0.00       2    999.0    -0.5
 151   19:20   49.7    34    6.1    38     13.1   697.8    0.00       1    999.0    -0.5
 151   19:30   49.8    33    8.2    38     14.2   697.3    0.00       0    999.0    -0.5
 151   19:40   49.6    33    7.7    38     13.6   697.6    0.00       0    999.0    -0.5
 151   19:50   49.4    34    7.7    44     12.1   697.8    0.00       0    999.0    -0.5
 151   20:00   48.9    35    5.6    48     11.9   697.6    0.00       0    999.0    -0.5
 151   20:10   48.8    34    7.3    44     16.6   697.2    0.00       0    999.0    -0.5
 151   20:20   48.8    35    7.3    43     14.3   697.7    0.00       0    999.0    -0.5
 151   20:30   48.6    35    7.1    47     15.1   697.7    0.00       0    999.0    -0.5
 151   20:40   48.3    36    6.8    43     14.5   697.5    0.00       0    999.0    -0.6
 151   20:50   48.3    36    6.6    47     14.0   697.5    0.00       0    999.0    -0.6
 151   21:00   47.8    37    5.1    44      9.3   697.4    0.00       0    999.0    -0.6
 151   21:10   46.4    40    1.1   329      4.6   697.3    0.00       0    999.0    -0.8
 151   21:20   43.6    45    1.4   252      3.7   697.1    0.00       0    999.0    -0.7
 151   21:30   41.8    49    2.4   255      5.0   696.6    0.00       0    999.0    -0.6
 151   21:40   42.9    47    1.9   122      4.3   697.0    0.00       0    999.0    -0.5
 151   21:50   42.7    48    2.8    62      8.0   697.1    0.00       0    999.0    -0.6
 151   22:00   44.0    43    4.7    47     13.0   697.5    0.00       0    999.0    -0.4
 151   22:10   46.6    39    5.3    52     11.0   697.2    0.00       0    999.0    -0.5
 151   22:20   46.6    39    3.6    45      7.5   697.0    0.00       0    999.0    -0.5
 151   22:30   45.0    42    1.3     6      7.0   696.8    0.00       0    999.0    -0.8
 151   22:40   42.7    47    1.6   221      4.5   697.1    0.00       0    999.0    -0.7

Return to Crooked Creek Research Lab graphs page.


Western Regional Climate Center,wrcc@dri.edu